KWVI/WVI METAR and TAF weather

Enter ICAO airport designator
Station Type Date Time Source
KWVI METAR 2020/02/26 08:53 UTC NOAA

KWVI 260853Z AUTO 36005KT 10SM CLR 11/02 A3028 RMK AO2 SLP254 T01060022 53001


Station Type Date Time Source
KWVI Decoded METAR 2020/02/26 08:53 UTC NOAA

WATSONVILLE MUNICIPAL AIRPORT , CA, United States (KWVI) 36-56N 121-47W 43M
Feb 26, 2020 - 03:53 AM EST / 2020.02.26 0853 UTC
Wind: from the N (360 degrees) at 6 MPH (5 KT):0
Visibility: 10 mile(s):0
Sky conditions: clear
Temperature: 51.1 F (10.6 C)
Dew Point: 36.0 F (2.2 C)
Relative Humidity: 56%
Pressure (altimeter): 30.28 in. Hg (1025 hPa)
Pressure tendency: 0.00 inches (0.1 hPa) higher than three hours ago
ob: KWVI 260853Z AUTO 36005KT 10SM CLR 11/02 A3028 RMK AO2 SLP254 T01060022 53001
cycle: 9

Station Type Date Time Source
KWVI TAF UTC NOAA

Error!

Example: see airport list